sensor_id;sensor_type;location;lat;lon;timestamp;pressure;altitude;pressure_sealevel;temperature;humidity
43844;BME280;29497;48.046;7.864;2022-10-23T00:00:42;99285.34;;;19.67;65.33
43844;BME280;29497;48.046;7.864;2022-10-23T00:03:09;99278.28;;;19.67;65.56
43844;BME280;29497;48.046;7.864;2022-10-23T00:05:38;99278.28;;;19.67;65.42
43844;BME280;29497;48.046;7.864;2022-10-23T00:08:05;99272.19;;;19.67;65.55
43844;BME280;29497;48.046;7.864;2022-10-23T00:10:33;99278.28;;;19.67;65.48
43844;BME280;29497;48.046;7.864;2022-10-23T00:12:59;99267.06;;;19.65;65.54
43844;BME280;29497;48.046;7.864;2022-10-23T00:15:26;99252.22;;;19.64;65.50
43844;BME280;29497;48.046;7.864;2022-10-23T00:17:53;99254.84;;;19.64;65.52
43844;BME280;29497;48.046;7.864;2022-10-23T00:20:19;99260.13;;;19.64;65.41
43844;BME280;29497;48.046;7.864;2022-10-23T00:22:47;99257.50;;;19.64;65.08
43844;BME280;29497;48.046;7.864;2022-10-23T00:25:13;99265.25;;;19.66;65.37
43844;BME280;29497;48.046;7.864;2022-10-23T00:27:42;99268.03;;;19.64;64.85
43844;BME280;29497;48.046;7.864;2022-10-23T00:30:09;99256.66;;;19.63;65.31
43844;BME280;29497;48.046;7.864;2022-10-23T00:32:36;99258.47;;;19.63;65.51
43844;BME280;29497;48.046;7.864;2022-10-23T00:35:04;99252.22;;;19.64;65.26
43844;BME280;29497;48.046;7.864;2022-10-23T00:37:30;99254.84;;;19.64;65.20
43844;BME280;29497;48.046;7.864;2022-10-23T00:39:57;99255.81;;;19.63;64.79
43844;BME280;29497;48.046;7.864;2022-10-23T00:42:23;99255.81;;;19.63;64.90
43844;BME280;29497;48.046;7.864;2022-10-23T00:45:17;99264.72;;;19.62;64.79
43844;BME280;29497;48.046;7.864;2022-10-23T00:47:44;99264.72;;;19.62;65.29
43844;BME280;29497;48.046;7.864;2022-10-23T00:50:10;99261.09;;;19.63;65.08
43844;BME280;29497;48.046;7.864;2022-10-23T00:52:41;99252.50;;;19.61;65.22
43844;BME280;29497;48.046;7.864;2022-10-23T00:55:10;99253.34;;;19.61;64.69
43844;BME280;29497;48.046;7.864;2022-10-23T00:57:40;99254.16;;;19.62;65.19
43844;BME280;29497;48.046;7.864;2022-10-23T01:00:12;99254.16;;;19.62;64.93
43844;BME280;29497;48.046;7.864;2022-10-23T01:02:39;99253.34;;;19.61;64.97
43844;BME280;29497;48.046;7.864;2022-10-23T01:05:05;99254.16;;;19.62;64.63
43844;BME280;29497;48.046;7.864;2022-10-23T01:07:37;99253.19;;;19.63;64.38
43844;BME280;29497;48.046;7.864;2022-10-23T01:10:13;99250.56;;;19.63;64.51
43844;BME280;29497;48.046;7.864;2022-10-23T01:12:45;99246.13;;;19.63;64.68
43844;BME280;29497;48.046;7.864;2022-10-23T01:15:21;99241.81;;;19.62;64.65
43844;BME280;29497;48.046;7.864;2022-10-23T01:17:52;99245.28;;;19.63;64.61
43844;BME280;29497;48.046;7.864;2022-10-23T01:20:30;99238.34;;;19.62;64.25
43844;BME280;29497;48.046;7.864;2022-10-23T01:23:24;99235.72;;;19.62;64.69
43844;BME280;29497;48.046;7.864;2022-10-23T01:26:01;99238.34;;;19.62;64.37
43844;BME280;29497;48.046;7.864;2022-10-23T01:28:41;99236.69;;;19.61;64.44
43844;BME280;29497;48.046;7.864;2022-10-23T01:31:13;99233.09;;;19.62;64.53
43844;BME280;29497;48.046;7.864;2022-10-23T01:33:45;99241.00;;;19.62;64.58
43844;BME280;29497;48.046;7.864;2022-10-23T01:36:14;99236.69;;;19.61;64.35
43844;BME280;29497;48.046;7.864;2022-10-23T01:38:45;99227.81;;;19.62;64.27
43844;BME280;29497;48.046;7.864;2022-10-23T01:41:16;99228.78;;;19.61;64.63
43844;BME280;29497;48.046;7.864;2022-10-23T01:43:47;99219.25;;;19.60;64.16
43844;BME280;29497;48.046;7.864;2022-10-23T01:46:17;99217.47;;;19.60;64.07
43844;BME280;29497;48.046;7.864;2022-10-23T01:48:46;99220.88;;;19.61;64.58
43844;BME280;29497;48.046;7.864;2022-10-23T01:51:16;99214.81;;;19.60;64.74
43844;BME280;29497;48.046;7.864;2022-10-23T01:53:45;99214.00;;;19.60;64.34
43844;BME280;29497;48.046;7.864;2022-10-23T01:56:17;99219.25;;;19.60;64.24
43844;BME280;29497;48.046;7.864;2022-10-23T01:58:48;99207.06;;;19.59;64.51
43844;BME280;29497;48.046;7.864;2022-10-23T02:01:19;99201.78;;;19.59;64.36
43844;BME280;29497;48.046;7.864;2022-10-23T02:03:47;99195.56;;;19.60;64.45
43844;BME280;29497;48.046;7.864;2022-10-23T02:06:14;99194.53;;;19.61;63.88
43844;BME280;29497;48.046;7.864;2022-10-23T02:08:41;99190.28;;;19.60;64.36
43844;BME280;29497;48.046;7.864;2022-10-23T02:11:09;99193.75;;;19.60;64.18
43844;BME280;29497;48.046;7.864;2022-10-23T02:13:40;99187.66;;;19.60;64.26
43844;BME280;29497;48.046;7.864;2022-10-23T02:16:15;99192.09;;;19.59;64.10
43844;BME280;29497;48.046;7.864;2022-10-23T02:18:51;99180.72;;;19.59;64.26
43844;BME280;29497;48.046;7.864;2022-10-23T02:21:26;99185.84;;;19.60;63.98
43844;BME280;29497;48.046;7.864;2022-10-23T02:23:58;99181.53;;;19.59;64.26
43844;BME280;29497;48.046;7.864;2022-10-23T02:26:29;99190.44;;;19.58;64.25
43844;BME280;29497;48.046;7.864;2022-10-23T02:29:02;99186.63;;;19.61;63.84
43844;BME280;29497;48.046;7.864;2022-10-23T02:31:32;99175.44;;;19.59;64.08
43844;BME280;29497;48.046;7.864;2022-10-23T02:33:59;99185.16;;;19.58;64.17
43844;BME280;29497;48.046;7.864;2022-10-23T02:36:26;99170.19;;;19.59;64.08
43844;BME280;29497;48.046;7.864;2022-10-23T02:38:52;99171.00;;;19.59;64.09
43844;BME280;29497;48.046;7.864;2022-10-23T02:41:27;99159.63;;;19.59;63.63
43844;BME280;29497;48.046;7.864;2022-10-23T02:44:02;99159.63;;;19.59;64.31
43844;BME280;29497;48.046;7.864;2022-10-23T02:46:40;99150.75;;;19.60;64.03
43844;BME280;29497;48.046;7.864;2022-10-23T02:49:14;99156.03;;;19.60;63.67
43844;BME280;29497;48.046;7.864;2022-10-23T02:51:55;99149.09;;;19.59;64.05
43844;BME280;29497;48.046;7.864;2022-10-23T02:54:36;99147.28;;;19.59;63.66
43844;BME280;29497;48.046;7.864;2022-10-23T02:57:15;99149.94;;;19.59;64.01
43844;BME280;29497;48.046;7.864;2022-10-23T02:59:50;99146.47;;;19.59;64.17
43844;BME280;29497;48.046;7.864;2022-10-23T03:02:23;99141.19;;;19.59;63.65
43844;BME280;29497;48.046;7.864;2022-10-23T03:04:51;99148.28;;;19.58;64.05
43844;BME280;29497;48.046;7.864;2022-10-23T03:07:19;99148.28;;;19.58;63.99
43844;BME280;29497;48.046;7.864;2022-10-23T03:09:46;99137.72;;;19.58;63.62
43844;BME280;29497;48.046;7.864;2022-10-23T03:12:13;99143.84;;;19.59;63.58
43844;BME280;29497;48.046;7.864;2022-10-23T03:14:39;99138.56;;;19.59;63.52
43844;BME280;29497;48.046;7.864;2022-10-23T03:17:06;99143.84;;;19.59;63.76
43844;BME280;29497;48.046;7.864;2022-10-23T03:19:34;99142.16;;;19.58;63.51
43844;BME280;29497;48.046;7.864;2022-10-23T03:22:00;99136.91;;;19.58;63.96
43844;BME280;29497;48.046;7.864;2022-10-23T03:24:27;99132.63;;;19.57;63.90
43844;BME280;29497;48.046;7.864;2022-10-23T03:26:53;99135.25;;;19.57;63.94
43844;BME280;29497;48.046;7.864;2022-10-23T03:29:20;99140.50;;;19.57;63.64
43844;BME280;29497;48.046;7.864;2022-10-23T03:31:46;99151.06;;;19.57;63.88
43844;BME280;29497;48.046;7.864;2022-10-23T03:34:13;99147.44;;;19.58;63.62
43844;BME280;29497;48.046;7.864;2022-10-23T03:36:41;99137.88;;;19.57;63.94
43844;BME280;29497;48.046;7.864;2022-10-23T03:39:07;99140.50;;;19.57;63.64
43844;BME280;29497;48.046;7.864;2022-10-23T03:41:34;99138.72;;;19.57;64.24
43844;BME280;29497;48.046;7.864;2022-10-23T03:44:00;99140.50;;;19.57;63.88
43844;BME280;29497;48.046;7.864;2022-10-23T03:46:27;99136.91;;;19.58;64.28
43844;BME280;29497;48.046;7.864;2022-10-23T03:48:53;99135.25;;;19.57;63.93
43844;BME280;29497;48.046;7.864;2022-10-23T03:51:22;99128.31;;;19.56;63.90
43844;BME280;29497;48.046;7.864;2022-10-23T03:53:50;99133.59;;;19.56;64.35
43844;BME280;29497;48.046;7.864;2022-10-23T03:56:16;99129.97;;;19.57;64.05
43844;BME280;29497;48.046;7.864;2022-10-23T03:58:43;99129.97;;;19.57;64.29
43844;BME280;29497;48.046;7.864;2022-10-23T04:01:09;99130.94;;;19.56;64.24
43844;BME280;29497;48.046;7.864;2022-10-23T04:03:36;99121.38;;;19.55;64.10
43844;BME280;29497;48.046;7.864;2022-10-23T04:06:03;99128.31;;;19.56;64.04
43844;BME280;29497;48.046;7.864;2022-10-23T04:08:29;99125.84;;;19.54;64.01
43844;BME280;29497;48.046;7.864;2022-10-23T04:10:57;99126.66;;;19.55;64.10
43844;BME280;29497;48.046;7.864;2022-10-23T04:13:23;99126.66;;;19.55;64.50
43844;BME280;29497;48.046;7.864;2022-10-23T04:15:51;99120.56;;;19.54;64.12
43844;BME280;29497;48.046;7.864;2022-10-23T04:18:18;99125.00;;;19.54;64.09
43844;BME280;29497;48.046;7.864;2022-10-23T04:20:46;99123.34;;;19.53;63.71
43844;BME280;29497;48.046;7.864;2022-10-23T04:23:13;99118.06;;;19.53;63.58
43844;BME280;29497;48.046;7.864;2022-10-23T04:25:40;99115.44;;;19.53;63.90
43844;BME280;29497;48.046;7.864;2022-10-23T04:28:08;99105.88;;;19.52;63.42
43844;BME280;29497;48.046;7.864;2022-10-23T04:30:34;99108.69;;;19.50;63.70
43844;BME280;29497;48.046;7.864;2022-10-23T04:33:01;99114.78;;;19.51;63.73
43844;BME280;29497;48.046;7.864;2022-10-23T04:35:28;99109.53;;;19.51;63.67
43844;BME280;29497;48.046;7.864;2022-10-23T04:37:54;99109.66;;;19.49;64.01
43844;BME280;29497;48.046;7.864;2022-10-23T04:40:20;99112.16;;;19.51;64.13
43844;BME280;29497;48.046;7.864;2022-10-23T04:42:47;99115.78;;;19.50;63.76
43844;BME280;29497;48.046;7.864;2022-10-23T04:45:15;99106.22;;;19.49;64.04
43844;BME280;29497;48.046;7.864;2022-10-23T04:47:42;99106.22;;;19.49;63.87
43844;BME280;29497;48.046;7.864;2022-10-23T04:50:08;99107.03;;;19.49;64.24
43844;BME280;29497;48.046;7.864;2022-10-23T04:52:35;99102.75;;;19.48;64.00
43844;BME280;29497;48.046;7.864;2022-10-23T04:55:01;99094.69;;;19.50;64.30
43844;BME280;29497;48.046;7.864;2022-10-23T04:57:28;99101.63;;;19.51;64.47
43844;BME280;29497;48.046;7.864;2022-10-23T04:59:55;99093.72;;;19.51;64.50
43844;BME280;29497;48.046;7.864;2022-10-23T05:02:23;99090.41;;;19.49;64.21
43844;BME280;29497;48.046;7.864;2022-10-23T05:04:49;99081.53;;;19.50;64.17
43844;BME280;29497;48.046;7.864;2022-10-23T05:07:16;99092.06;;;19.50;64.03
43844;BME280;29497;48.046;7.864;2022-10-23T05:09:42;99084.16;;;19.50;64.36
43844;BME280;29497;48.046;7.864;2022-10-23T05:12:09;99085.13;;;19.49;64.23
43844;BME280;29497;48.046;7.864;2022-10-23T05:14:35;99088.44;;;19.51;64.30
43844;BME280;29497;48.046;7.864;2022-10-23T05:17:06;99084.81;;;19.52;64.80
43844;BME280;29497;48.046;7.864;2022-10-23T05:19:38;99091.59;;;19.37;63.30
43844;BME280;29497;48.046;7.864;2022-10-23T05:22:07;99088.69;;;19.22;63.20
43844;BME280;29497;48.046;7.864;2022-10-23T05:24:34;99080.25;;;19.01;62.79
43844;BME280;29497;48.046;7.864;2022-10-23T05:27:01;99077.63;;;19.01;62.42
43844;BME280;29497;48.046;7.864;2022-10-23T05:29:27;99077.00;;;18.89;62.50
43844;BME280;29497;48.046;7.864;2022-10-23T05:31:56;99082.72;;;18.84;62.37
43844;BME280;29497;48.046;7.864;2022-10-23T05:34:27;99085.13;;;18.78;62.75
43844;BME280;29497;48.046;7.864;2022-10-23T05:36:56;99086.56;;;18.72;62.52
43844;BME280;29497;48.046;7.864;2022-10-23T05:39:23;99087.97;;;18.67;62.33
43844;BME280;29497;48.046;7.864;2022-10-23T05:41:50;99090.22;;;18.62;62.57
43844;BME280;29497;48.046;7.864;2022-10-23T05:44:16;99083.88;;;18.54;63.10
43844;BME280;29497;48.046;7.864;2022-10-23T05:46:43;99085.81;;;18.52;62.95
43844;BME280;29497;48.046;7.864;2022-10-23T05:49:09;99078.91;;;18.51;62.78
43844;BME280;29497;48.046;7.864;2022-10-23T05:51:37;99078.34;;;18.48;62.41
43844;BME280;29497;48.046;7.864;2022-10-23T05:54:06;99081.66;;;18.50;63.01
43844;BME280;29497;48.046;7.864;2022-10-23T05:56:33;99093.03;;;18.50;62.45
43844;BME280;29497;48.046;7.864;2022-10-23T05:59:00;99095.47;;;18.34;63.24
43844;BME280;29497;48.046;7.864;2022-10-23T06:01:27;99105.00;;;18.35;63.71
43844;BME280;29497;48.046;7.864;2022-10-23T06:03:53;99088.34;;;18.44;63.78
43844;BME280;29497;48.046;7.864;2022-10-23T06:06:20;99080.56;;;18.52;63.51
43844;BME280;29497;48.046;7.864;2022-10-23T06:08:46;99084.13;;;18.61;63.85
43844;BME280;29497;48.046;7.864;2022-10-23T06:11:14;99070.22;;;18.69;63.89
43844;BME280;29497;48.046;7.864;2022-10-23T06:13:41;99068.66;;;18.76;63.38
43844;BME280;29497;48.046;7.864;2022-10-23T06:16:09;99069.47;;;18.76;63.35
43844;BME280;29497;48.046;7.864;2022-10-23T06:18:36;99066.41;;;18.81;63.36
43844;BME280;29497;48.046;7.864;2022-10-23T06:21:02;99072.72;;;18.88;63.58
43844;BME280;29497;48.046;7.864;2022-10-23T06:23:29;99078.38;;;18.93;63.43
43844;BME280;29497;48.046;7.864;2022-10-23T06:25:57;99077.09;;;18.97;63.28
43844;BME280;29497;48.046;7.864;2022-10-23T06:28:25;99080.25;;;19.01;63.32
43844;BME280;29497;48.046;7.864;2022-10-23T06:30:52;99077.97;;;19.06;62.91
43844;BME280;29497;48.046;7.864;2022-10-23T06:33:18;99085.75;;;19.07;63.22
43844;BME280;29497;48.046;7.864;2022-10-23T06:35:45;99095.97;;;19.10;62.72
43844;BME280;29497;48.046;7.864;2022-10-23T06:38:12;99085.28;;;19.12;62.86
43844;BME280;29497;48.046;7.864;2022-10-23T06:40:38;99088.44;;;19.15;62.50
43844;BME280;29497;48.046;7.864;2022-10-23T06:43:05;99082.88;;;19.18;63.12
43844;BME280;29497;48.046;7.864;2022-10-23T06:45:34;99082.88;;;19.18;62.20
43844;BME280;29497;48.046;7.864;2022-10-23T06:48:00;99086.19;;;19.20;62.57
43844;BME280;29497;48.046;7.864;2022-10-23T06:50:27;99085.22;;;19.21;62.99
43844;BME280;29497;48.046;7.864;2022-10-23T06:52:55;99086.84;;;19.22;62.73
43844;BME280;29497;48.046;7.864;2022-10-23T06:55:21;99076.16;;;19.24;62.40
43844;BME280;29497;48.046;7.864;2022-10-23T06:57:48;99087.53;;;19.24;62.18
43844;BME280;29497;48.046;7.864;2022-10-23T07:00:15;99086.56;;;19.25;62.44
43844;BME280;29497;48.046;7.864;2022-10-23T07:02:43;99079.34;;;19.27;62.03
43844;BME280;29497;48.046;7.864;2022-10-23T07:05:09;99083.63;;;19.28;62.17
43844;BME280;29497;48.046;7.864;2022-10-23T07:07:36;99078.34;;;19.28;62.17
43844;BME280;29497;48.046;7.864;2022-10-23T07:10:03;99058.13;;;19.29;62.72
43844;BME280;29497;48.046;7.864;2022-10-23T07:12:29;99071.13;;;19.31;62.57
43844;BME280;29497;48.046;7.864;2022-10-23T07:14:56;99057.97;;;19.31;62.34
43844;BME280;29497;48.046;7.864;2022-10-23T07:17:22;99069.16;;;19.33;62.16
43844;BME280;29497;48.046;7.864;2022-10-23T07:19:50;99068.31;;;19.32;62.21
43844;BME280;29497;48.046;7.864;2022-10-23T07:22:17;99049.75;;;19.34;62.54
43844;BME280;29497;48.046;7.864;2022-10-23T07:24:43;99043.66;;;19.33;62.41
43844;BME280;29497;48.046;7.864;2022-10-23T07:27:10;99055.84;;;19.34;62.46
43844;BME280;29497;48.046;7.864;2022-10-23T07:29:36;99057.50;;;19.35;62.33
43844;BME280;29497;48.046;7.864;2022-10-23T07:32:03;99071.50;;;19.36;62.49
43844;BME280;29497;48.046;7.864;2022-10-23T07:34:30;99079.38;;;19.36;62.10
43844;BME280;29497;48.046;7.864;2022-10-23T07:36:58;99081.03;;;19.37;62.24
43844;BME280;29497;48.046;7.864;2022-10-23T07:39:25;99086.31;;;19.37;62.46
43844;BME280;29497;48.046;7.864;2022-10-23T07:41:51;99081.03;;;19.37;62.18
43844;BME280;29497;48.046;7.864;2022-10-23T07:44:18;99081.03;;;19.37;62.56
43844;BME280;29497;48.046;7.864;2022-10-23T07:46:44;99077.44;;;19.38;61.89
43844;BME280;29497;48.046;7.864;2022-10-23T07:49:11;99071.34;;;19.37;62.15
43844;BME280;29497;48.046;7.864;2022-10-23T07:51:37;99084.38;;;19.39;62.29
43844;BME280;29497;48.046;7.864;2022-10-23T07:54:06;99087.16;;;19.37;62.62
43844;BME280;29497;48.046;7.864;2022-10-23T07:56:33;99101.81;;;19.40;62.31
43844;BME280;29497;48.046;7.864;2022-10-23T07:58:59;99085.19;;;19.39;62.59
43844;BME280;29497;48.046;7.864;2022-10-23T08:01:29;99087.69;;;19.41;62.48
43844;BME280;29497;48.046;7.864;2022-10-23T08:03:56;99092.94;;;19.41;62.48
43844;BME280;29497;48.046;7.864;2022-10-23T08:06:23;99077.13;;;19.41;62.56
43844;BME280;29497;48.046;7.864;2022-10-23T08:08:50;99082.41;;;19.41;62.57
43844;BME280;29497;48.046;7.864;2022-10-23T08:11:21;99066.59;;;19.41;62.27
43844;BME280;29497;48.046;7.864;2022-10-23T08:13:53;99075.16;;;19.43;62.64
43844;BME280;29497;48.046;7.864;2022-10-23T08:16:20;99073.50;;;19.42;62.88
43844;BME280;29497;48.046;7.864;2022-10-23T08:18:47;99062.00;;;19.43;62.63
43844;BME280;29497;48.046;7.864;2022-10-23T08:21:14;99072.53;;;19.43;62.71
43844;BME280;29497;48.046;7.864;2022-10-23T08:23:41;99065.44;;;19.43;62.34
43844;BME280;29497;48.046;7.864;2022-10-23T08:26:08;99067.59;;;19.40;62.62
43844;BME280;29497;48.046;7.864;2022-10-23T08:28:36;99065.25;;;19.37;63.08
43844;BME280;29497;48.046;7.864;2022-10-23T08:31:08;99066.22;;;19.36;63.24
43844;BME280;29497;48.046;7.864;2022-10-23T08:33:35;99061.94;;;19.35;63.65
43844;BME280;29497;48.046;7.864;2022-10-23T08:36:02;99049.09;;;19.32;63.82
43844;BME280;29497;48.046;7.864;2022-10-23T08:38:28;99034.75;;;19.34;63.85
43844;BME280;29497;48.046;7.864;2022-10-23T08:40:55;99030.31;;;19.35;63.54
43844;BME280;29497;48.046;7.864;2022-10-23T08:43:29;99033.63;;;19.37;63.32
43844;BME280;29497;48.046;7.864;2022-10-23T08:46:00;99024.75;;;19.38;63.76
43844;BME280;29497;48.046;7.864;2022-10-23T08:48:32;99015.88;;;19.39;63.80
43844;BME280;29497;48.046;7.864;2022-10-23T08:51:06;98996.47;;;19.40;63.96
43844;BME280;29497;48.046;7.864;2022-10-23T08:53:40;99007.00;;;19.40;63.98
43844;BME280;29497;48.046;7.864;2022-10-23T08:56:12;99003.38;;;19.41;64.03
43844;BME280;29497;48.046;7.864;2022-10-23T08:58:44;99006.66;;;19.43;64.03
43844;BME280;29497;48.046;7.864;2022-10-23T09:01:29;99005.69;;;19.44;63.71
43844;BME280;29497;48.046;7.864;2022-10-23T09:03:58;99009.97;;;19.45;63.49
43844;BME280;29497;48.046;7.864;2022-10-23T09:06:32;99013.59;;;19.44;63.51
43844;BME280;29497;48.046;7.864;2022-10-23T09:09:11;99020.53;;;19.45;64.16
43844;BME280;29497;48.046;7.864;2022-10-23T09:11:45;99023.84;;;19.47;63.54
43844;BME280;29497;48.046;7.864;2022-10-23T09:14:27;99019.53;;;19.46;64.48
43844;BME280;29497;48.046;7.864;2022-10-23T09:17:09;99013.28;;;19.47;64.29
43844;BME280;29497;48.046;7.864;2022-10-23T09:19:38;99018.56;;;19.47;63.69
43844;BME280;29497;48.046;7.864;2022-10-23T09:22:04;99018.56;;;19.47;64.00
43844;BME280;29497;48.046;7.864;2022-10-23T09:24:31;99027.19;;;19.49;63.81
43844;BME280;29497;48.046;7.864;2022-10-23T09:26:58;99021.91;;;19.49;63.94
43844;BME280;29497;48.046;7.864;2022-10-23T09:29:27;99020.94;;;19.50;63.91
43844;BME280;29497;48.046;7.864;2022-10-23T09:31:56;99014.69;;;19.51;63.92
43844;BME280;29497;48.046;7.864;2022-10-23T09:34:26;99003.31;;;19.50;63.54
43844;BME280;29497;48.046;7.864;2022-10-23T09:36:55;99001.50;;;19.51;63.82
43844;BME280;29497;48.046;7.864;2022-10-23T09:39:28;99000.50;;;19.52;64.62
43844;BME280;29497;48.046;7.864;2022-10-23T09:41:55;98990.50;;;19.55;64.32
43844;BME280;29497;48.046;7.864;2022-10-23T09:44:24;98978.44;;;19.53;64.99
43844;BME280;29497;48.046;7.864;2022-10-23T09:46:53;98981.09;;;19.53;64.68
43844;BME280;29497;48.046;7.864;2022-10-23T09:49:21;98986.19;;;19.54;64.48
43844;BME280;29497;48.046;7.864;2022-10-23T09:52:00;98980.78;;;19.56;64.39
43844;BME280;29497;48.046;7.864;2022-10-23T09:54:30;98975.34;;;19.57;64.17
43844;BME280;29497;48.046;7.864;2022-10-23T09:57:02;98973.56;;;19.58;64.18
43844;BME280;29497;48.046;7.864;2022-10-23T09:59:30;98963.69;;;19.60;64.36
43844;BME280;29497;48.046;7.864;2022-10-23T10:01:59;98967.94;;;19.61;64.28
43844;BME280;29497;48.046;7.864;2022-10-23T10:04:33;98969.59;;;19.62;64.58
43844;BME280;29497;48.046;7.864;2022-10-23T10:07:04;98970.44;;;19.62;64.72
43844;BME280;29497;48.046;7.864;2022-10-23T10:09:31;98972.91;;;19.64;64.90
43844;BME280;29497;48.046;7.864;2022-10-23T10:12:09;98976.22;;;19.66;64.42
43844;BME280;29497;48.046;7.864;2022-10-23T10:14:58;98977.22;;;19.65;64.75
43844;BME280;29497;48.046;7.864;2022-10-23T10:17:34;98983.47;;;19.64;65.18
43844;BME280;29497;48.046;7.864;2022-10-23T10:20:14;98980.66;;;19.66;65.25
43844;BME280;29497;48.046;7.864;2022-10-23T10:22:50;98984.81;;;19.68;65.20
43844;BME280;29497;48.046;7.864;2022-10-23T10:25:20;98986.47;;;19.69;65.20
43844;BME280;29497;48.046;7.864;2022-10-23T10:27:57;98989.09;;;19.69;65.22
43844;BME280;29497;48.046;7.864;2022-10-23T10:30:33;98989.75;;;19.71;65.59
43844;BME280;29497;48.046;7.864;2022-10-23T10:33:06;98985.28;;;19.72;65.17
43844;BME280;29497;48.046;7.864;2022-10-23T10:35:40;98992.22;;;19.73;65.03
43844;BME280;29497;48.046;7.864;2022-10-23T10:38:27;98984.47;;;19.71;65.40
43844;BME280;29497;48.046;7.864;2022-10-23T10:41:25;98987.78;;;19.73;65.63
43844;BME280;29497;48.046;7.864;2022-10-23T10:44:07;98978.91;;;19.74;65.41
43844;BME280;29497;48.046;7.864;2022-10-23T10:46:43;98985.81;;;19.75;65.10
43844;BME280;29497;48.046;7.864;2022-10-23T10:49:18;98966.41;;;19.76;65.44
43844;BME280;29497;48.046;7.864;2022-10-23T10:51:53;98962.78;;;19.77;65.04
43844;BME280;29497;48.046;7.864;2022-10-23T10:54:34;98966.25;;;19.78;64.99
43844;BME280;29497;48.046;7.864;2022-10-23T10:57:25;98956.38;;;19.80;65.33
43844;BME280;29497;48.046;7.864;2022-10-23T10:59:55;98959.81;;;19.80;65.17
43844;BME280;29497;48.046;7.864;2022-10-23T11:02:26;98957.16;;;19.80;65.75
43844;BME280;29497;48.046;7.864;2022-10-23T11:05:01;98941.34;;;19.80;65.22
43844;BME280;29497;48.046;7.864;2022-10-23T11:07:34;98944.66;;;19.82;65.57
43844;BME280;29497;48.046;7.864;2022-10-23T11:10:13;98934.13;;;19.82;65.54
43844;BME280;29497;48.046;7.864;2022-10-23T11:12:41;98928.84;;;19.82;65.20
43844;BME280;29497;48.046;7.864;2022-10-23T11:15:14;98929.84;;;19.81;65.36
43844;BME280;29497;48.046;7.864;2022-10-23T11:17:46;98920.13;;;19.82;65.61
43844;BME280;29497;48.046;7.864;2022-10-23T11:20:35;98928.84;;;19.82;65.34
43844;BME280;29497;48.046;7.864;2022-10-23T11:23:15;98927.88;;;19.83;65.88
43844;BME280;29497;48.046;7.864;2022-10-23T11:26:00;98923.56;;;19.82;65.49
43844;BME280;29497;48.046;7.864;2022-10-23T11:28:39;98925.22;;;19.83;65.50
43844;BME280;29497;48.046;7.864;2022-10-23T11:31:19;98928.53;;;19.85;65.47
43844;BME280;29497;48.046;7.864;2022-10-23T11:33:59;98930.19;;;19.86;65.46
43844;BME280;29497;48.046;7.864;2022-10-23T11:36:41;98924.09;;;19.86;65.47
43844;BME280;29497;48.046;7.864;2022-10-23T11:39:16;98918.66;;;19.87;65.53
43844;BME280;29497;48.046;7.864;2022-10-23T11:41:51;98924.78;;;19.88;65.68
43844;BME280;29497;48.046;7.864;2022-10-23T11:44:24;98920.47;;;19.87;65.72
43844;BME280;29497;48.046;7.864;2022-10-23T11:47:00;98921.31;;;19.87;65.82
43844;BME280;29497;48.046;7.864;2022-10-23T11:49:26;98917.69;;;19.88;65.84
43844;BME280;29497;48.046;7.864;2022-10-23T11:52:00;98918.50;;;19.89;65.70
43844;BME280;29497;48.046;7.864;2022-10-23T11:54:28;98912.41;;;19.88;65.73
43844;BME280;29497;48.046;7.864;2022-10-23T11:57:08;98904.50;;;19.88;65.59
43844;BME280;29497;48.046;7.864;2022-10-23T11:59:41;98900.88;;;19.89;65.46
43844;BME280;29497;48.046;7.864;2022-10-23T12:02:21;98891.97;;;19.90;65.35
43844;BME280;29497;48.046;7.864;2022-10-23T12:04:50;98884.06;;;19.90;65.42
43844;BME280;29497;48.046;7.864;2022-10-23T12:07:23;98890.16;;;19.91;65.45
43844;BME280;29497;48.046;7.864;2022-10-23T12:09:55;98882.09;;;19.92;65.76
43844;BME280;29497;48.046;7.864;2022-10-23T12:12:29;98878.47;;;19.93;65.72
43844;BME280;29497;48.046;7.864;2022-10-23T12:15:18;98868.75;;;19.94;65.60
43844;BME280;29497;48.046;7.864;2022-10-23T12:17:47;98857.06;;;19.96;65.52
43844;BME280;29497;48.046;7.864;2022-10-23T12:20:25;98848.19;;;19.97;65.57
43844;BME280;29497;48.046;7.864;2022-10-23T12:23:09;98843.75;;;19.98;65.60
43844;BME280;29497;48.046;7.864;2022-10-23T12:25:52;98842.91;;;19.97;66.02
43844;BME280;29497;48.046;7.864;2022-10-23T12:28:30;98832.38;;;19.97;65.72
43844;BME280;29497;48.046;7.864;2022-10-23T12:31:07;98827.09;;;19.97;66.11
43844;BME280;29497;48.046;7.864;2022-10-23T12:33:46;98816.53;;;19.97;66.09
43844;BME280;29497;48.046;7.864;2022-10-23T12:36:27;98812.94;;;19.98;65.82
43844;BME280;29497;48.046;7.864;2022-10-23T12:38:57;98818.19;;;19.98;65.96
43844;BME280;29497;48.046;7.864;2022-10-23T12:41:24;98805.19;;;19.97;65.82
43844;BME280;29497;48.046;7.864;2022-10-23T12:43:55;98790.19;;;19.97;65.82
43844;BME280;29497;48.046;7.864;2022-10-23T12:46:29;98791.84;;;19.98;66.01
43844;BME280;29497;48.046;7.864;2022-10-23T12:48:57;98790.19;;;19.97;66.12
43844;BME280;29497;48.046;7.864;2022-10-23T12:51:26;98784.91;;;19.97;65.76
43844;BME280;29497;48.046;7.864;2022-10-23T12:53:53;98777.66;;;19.99;65.92
43844;BME280;29497;48.046;7.864;2022-10-23T12:56:20;98774.69;;;19.94;66.09
43844;BME280;29497;48.046;7.864;2022-10-23T12:58:50;98772.72;;;19.96;66.99
43844;BME280;29497;48.046;7.864;2022-10-23T13:01:24;98781.28;;;19.98;66.79
43844;BME280;29497;48.046;7.864;2022-10-23T13:03:55;98776.03;;;19.98;66.76
43844;BME280;29497;48.046;7.864;2022-10-23T13:06:23;98767.09;;;19.99;66.75
43844;BME280;29497;48.046;7.864;2022-10-23T13:08:49;98763.47;;;20.00;66.48
43844;BME280;29497;48.046;7.864;2022-10-23T13:11:18;98776.66;;;20.00;66.81
43844;BME280;29497;48.046;7.864;2022-10-23T13:13:45;98774.03;;;20.00;66.82
43844;BME280;29497;48.046;7.864;2022-10-23T13:16:14;98758.19;;;20.00;66.44